createdAt,value
2018-09-30T00:01:22.521Z,20.05
2018-09-30T00:03:51.120Z,17.27
2018-09-30T00:06:19.407Z,18.65
2018-09-30T00:08:47.776Z,21.27
2018-09-30T00:11:16.066Z,23.65
2018-09-30T00:13:44.630Z,21.42
2018-09-30T00:16:13.047Z,18.67
2018-09-30T00:18:43.905Z,14.70
2018-09-30T00:21:12.253Z,29.02
2018-09-30T00:23:45.991Z,15.90
2018-09-30T00:26:19.615Z,16.82
2018-09-30T00:28:48.187Z,15.53
2018-09-30T00:31:16.662Z,17.70
2018-09-30T00:33:50.408Z,19.45
2018-09-30T00:36:18.785Z,21.55
2018-09-30T00:38:47.072Z,16.77
2018-09-30T00:41:15.430Z,21.57
2018-09-30T00:43:43.944Z,14.83
2018-09-30T00:46:12.315Z,21.55
2018-09-30T00:48:40.679Z,16.05
2018-09-30T00:51:09.459Z,17.10
2018-09-30T00:53:37.793Z,24.30
2018-09-30T00:56:06.179Z,16.00
2018-09-30T00:58:34.496Z,16.42
2018-09-30T01:01:02.824Z,20.40
2018-09-30T01:03:31.167Z,17.32
2018-09-30T01:05:59.599Z,24.87
2018-09-30T01:08:27.966Z,23.22
2018-09-30T01:10:56.303Z,51.60
2018-09-30T01:13:24.636Z,83.92
2018-09-30T01:15:52.901Z,122.62
2018-09-30T01:18:21.215Z,88.82
2018-09-30T01:20:49.630Z,73.72
2018-09-30T01:23:17.996Z,52.33
2018-09-30T01:25:46.548Z,24.77
2018-09-30T01:28:14.883Z,26.55
2018-09-30T01:30:43.227Z,28.27
2018-09-30T01:33:11.559Z,14.03
2018-09-30T01:35:39.895Z,16.00
2018-09-30T01:38:08.194Z,14.30
2018-09-30T01:40:36.555Z,14.65
2018-09-30T01:43:04.882Z,13.50
2018-09-30T01:45:33.267Z,12.50
2018-09-30T01:48:01.635Z,9.33
2018-09-30T01:50:30.092Z,12.75
2018-09-30T01:52:58.887Z,12.18
2018-09-30T01:55:27.263Z,10.65
2018-09-30T01:57:55.703Z,12.43
2018-09-30T02:00:24.012Z,13.38
2018-09-30T02:02:52.335Z,10.60
2018-09-30T02:05:20.623Z,9.20
2018-09-30T02:07:49.315Z,13.58
2018-09-30T02:10:17.847Z,17.70
2018-09-30T02:12:46.358Z,13.72
2018-09-30T02:15:14.764Z,10.78
2018-09-30T02:17:43.139Z,9.98
2018-09-30T02:20:11.447Z,14.30
2018-09-30T02:22:39.772Z,15.68
2018-09-30T02:25:08.097Z,18.82
2018-09-30T02:27:36.455Z,9.43
2018-09-30T02:30:04.996Z,16.82
2018-09-30T02:32:34.466Z,8.98
2018-09-30T02:35:02.738Z,10.70
2018-09-30T02:37:31.124Z,14.28
2018-09-30T02:39:59.432Z,9.70
2018-09-30T02:42:27.736Z,11.12
2018-09-30T02:44:56.079Z,13.90
2018-09-30T02:47:24.395Z,7.78
2018-09-30T02:49:52.823Z,10.18
2018-09-30T02:52:21.111Z,12.82
2018-09-30T02:54:49.501Z,10.53
2018-09-30T02:57:17.840Z,10.32
2018-09-30T02:59:46.171Z,14.85
2018-09-30T03:02:15.023Z,10.18
2018-09-30T03:04:43.360Z,11.45
2018-09-30T03:07:16.994Z,16.48
2018-09-30T03:09:45.299Z,12.98
2018-09-30T03:12:13.615Z,9.20
2018-09-30T03:14:41.983Z,9.90
2018-09-30T03:17:10.413Z,12.82
2018-09-30T03:19:38.912Z,12.23
2018-09-30T03:22:07.404Z,12.98
2018-09-30T03:24:35.918Z,10.20
2018-09-30T03:27:04.296Z,14.47
2018-09-30T03:29:32.638Z,10.45
2018-09-30T03:32:01.982Z,10.25
2018-09-30T03:34:30.286Z,9.35
2018-09-30T03:36:58.597Z,10.65
2018-09-30T03:39:27.049Z,11.75
2018-09-30T03:41:55.306Z,9.00
2018-09-30T03:44:23.740Z,13.70
2018-09-30T03:46:53.029Z,14.33
2018-09-30T03:49:21.331Z,12.63
2018-09-30T03:51:49.603Z,10.80
2018-09-30T03:54:17.884Z,16.05
2018-09-30T03:56:46.513Z,10.43
2018-09-30T03:59:14.933Z,10.28
2018-09-30T04:01:43.323Z,9.45
2018-09-30T04:04:11.716Z,15.45
2018-09-30T04:06:40.040Z,10.38
2018-09-30T04:09:09.264Z,9.58
2018-09-30T04:11:37.905Z,11.10
2018-09-30T04:14:06.205Z,14.28
2018-09-30T04:16:34.515Z,11.83
2018-09-30T04:19:02.959Z,15.85
2018-09-30T04:21:31.299Z,10.00
2018-09-30T04:24:11.325Z,10.32
2018-09-30T04:26:40.687Z,16.57
2018-09-30T04:29:09.088Z,17.65
2018-09-30T04:31:37.522Z,14.85
2018-09-30T04:34:06.030Z,15.48
2018-09-30T04:36:35.229Z,13.70
2018-09-30T04:39:04.863Z,11.65
2018-09-30T04:41:33.180Z,14.10
2018-09-30T04:44:02.182Z,9.73
2018-09-30T04:46:37.270Z,9.78
2018-09-30T04:49:05.659Z,12.13
2018-09-30T04:51:33.930Z,12.45
2018-09-30T04:54:02.182Z,8.53
2018-09-30T04:56:30.473Z,13.78
2018-09-30T04:58:58.775Z,12.35
2018-09-30T05:01:27.938Z,9.40
2018-09-30T05:03:56.263Z,8.58
2018-09-30T05:06:25.733Z,12.15
2018-09-30T05:08:54.011Z,11.60
2018-09-30T05:11:22.429Z,12.80
2018-09-30T05:13:51.033Z,7.47
2018-09-30T05:16:19.395Z,11.15
2018-09-30T05:18:47.632Z,11.00
2018-09-30T05:21:15.887Z,11.60
2018-09-30T05:23:44.207Z,12.40
2018-09-30T05:26:12.535Z,13.40
2018-09-30T05:28:40.802Z,9.70
2018-09-30T05:31:09.142Z,13.90
2018-09-30T05:33:37.414Z,12.82
2018-09-30T05:36:05.850Z,12.13
2018-09-30T05:38:34.196Z,15.60
2018-09-30T05:41:02.533Z,12.70
2018-09-30T05:43:31.152Z,12.30
2018-09-30T05:45:59.524Z,13.72
2018-09-30T05:48:27.996Z,13.10
2018-09-30T05:50:56.337Z,10.53
2018-09-30T05:53:24.683Z,13.22
2018-09-30T05:55:52.970Z,16.65
2018-09-30T05:58:21.325Z,12.10
2018-09-30T06:00:49.677Z,10.53
2018-09-30T06:03:18.045Z,9.75
2018-09-30T06:05:46.323Z,13.95
2018-09-30T06:08:14.610Z,8.40
2018-09-30T06:10:42.999Z,13.98
2018-09-30T06:13:11.337Z,11.95
2018-09-30T06:15:39.688Z,9.85
2018-09-30T06:18:07.968Z,9.45
2018-09-30T06:20:36.431Z,12.40
2018-09-30T06:23:04.982Z,11.55
2018-09-30T06:25:33.490Z,10.80
2018-09-30T06:28:01.862Z,12.28
2018-09-30T06:30:30.183Z,12.88
2018-09-30T06:32:58.644Z,10.55
2018-09-30T06:35:26.984Z,17.77
2018-09-30T06:37:55.692Z,11.15
2018-09-30T06:40:24.077Z,8.65
2018-09-30T06:42:52.440Z,12.45
2018-09-30T06:45:20.844Z,7.55
2018-09-30T06:47:49.303Z,10.00
2018-09-30T06:50:17.720Z,10.55
2018-09-30T06:52:46.069Z,10.45
2018-09-30T06:55:14.313Z,9.83
2018-09-30T06:57:42.651Z,14.40
2018-09-30T07:00:11.016Z,14.50
2018-09-30T07:02:39.402Z,8.00
2018-09-30T07:05:07.748Z,11.68
2018-09-30T07:07:36.040Z,8.93
2018-09-30T07:10:04.383Z,10.38
2018-09-30T07:12:33.004Z,11.03
2018-09-30T07:15:01.470Z,9.35
2018-09-30T07:17:29.787Z,10.23
2018-09-30T07:19:58.074Z,9.90
2018-09-30T07:22:26.438Z,10.20
2018-09-30T07:24:54.702Z,8.05
2018-09-30T07:27:23.195Z,10.20
2018-09-30T07:29:51.582Z,14.68
2018-09-30T07:32:20.163Z,11.15
2018-09-30T07:34:48.646Z,12.55
2018-09-30T07:37:17.107Z,10.00
2018-09-30T07:39:45.489Z,13.83
2018-09-30T07:42:13.788Z,9.93
2018-09-30T07:44:42.167Z,11.43
2018-09-30T07:47:10.642Z,7.62
2018-09-30T07:49:39.070Z,9.75
2018-09-30T07:52:08.129Z,17.20
2018-09-30T07:54:38.980Z,15.13
2018-09-30T07:57:13.869Z,7.28
2018-09-30T07:59:42.305Z,8.15
2018-09-30T08:02:10.727Z,9.93
2018-09-30T08:04:39.131Z,9.93
2018-09-30T08:07:07.566Z,7.60
2018-09-30T08:09:36.003Z,7.15
2018-09-30T08:12:04.392Z,12.10
2018-09-30T08:14:32.846Z,8.55
2018-09-30T08:17:01.228Z,12.10
2018-09-30T08:19:29.612Z,11.45
2018-09-30T08:21:57.995Z,10.35
2018-09-30T08:24:26.379Z,9.95
2018-09-30T08:26:54.802Z,6.53
2018-09-30T08:29:23.151Z,12.58
2018-09-30T08:31:52.184Z,9.80
2018-09-30T08:34:20.478Z,11.80
2018-09-30T08:36:48.882Z,8.18
2018-09-30T08:39:17.363Z,14.05
2018-09-30T08:41:45.694Z,7.10
2018-09-30T08:44:14.485Z,11.80
2018-09-30T08:46:42.892Z,8.68
2018-09-30T08:49:11.314Z,12.30
2018-09-30T08:51:40.623Z,13.53
2018-09-30T08:54:08.975Z,8.08
2018-09-30T08:56:37.327Z,10.08
2018-09-30T08:59:05.693Z,9.43
2018-09-30T09:01:34.109Z,13.45
2018-09-30T09:04:02.455Z,10.25
2018-09-30T09:06:30.834Z,10.53
2018-09-30T09:08:59.493Z,7.37
2018-09-30T09:11:27.798Z,8.70
2018-09-30T09:13:56.113Z,13.00
2018-09-30T09:16:24.511Z,22.80
2018-09-30T09:18:52.784Z,14.05
2018-09-30T09:21:21.095Z,10.65
2018-09-30T09:23:49.379Z,13.65
2018-09-30T09:26:17.742Z,19.50
2018-09-30T09:28:46.257Z,7.83
2018-09-30T09:31:14.680Z,8.58
2018-09-30T09:33:43.254Z,10.30
2018-09-30T09:36:11.562Z,7.83
2018-09-30T09:38:39.907Z,11.33
2018-09-30T09:41:08.288Z,10.38
2018-09-30T09:43:43.306Z,7.25
2018-09-30T09:46:11.636Z,14.07
2018-09-30T09:48:40.002Z,7.55
2018-09-30T09:51:08.359Z,10.03
2018-09-30T09:53:36.691Z,9.45
2018-09-30T09:56:05.000Z,11.08
2018-09-30T09:58:33.383Z,9.65
2018-09-30T10:01:04.825Z,13.28
2018-09-30T10:03:33.263Z,11.38
2018-09-30T10:06:01.575Z,11.08
2018-09-30T10:08:29.977Z,10.08
2018-09-30T10:10:59.438Z,10.00
2018-09-30T10:13:27.837Z,8.10
2018-09-30T10:15:56.204Z,8.88
2018-09-30T10:18:24.574Z,12.40
2018-09-30T10:20:52.963Z,6.78
2018-09-30T10:23:21.233Z,9.58
2018-09-30T10:25:49.774Z,6.70
2018-09-30T10:28:19.079Z,7.80
2018-09-30T10:30:50.915Z,8.50
2018-09-30T10:33:19.319Z,10.00
2018-09-30T10:35:48.863Z,13.22
2018-09-30T10:38:17.266Z,6.97
2018-09-30T10:40:45.716Z,10.45
2018-09-30T10:43:14.102Z,13.58
2018-09-30T10:45:42.496Z,8.70
2018-09-30T10:48:10.883Z,7.67
2018-09-30T10:50:39.384Z,8.33
2018-09-30T10:53:07.704Z,11.88
2018-09-30T10:55:36.256Z,11.50
2018-09-30T10:58:04.753Z,7.65
2018-09-30T11:00:33.127Z,13.20
2018-09-30T11:03:02.164Z,14.70
2018-09-30T11:05:30.528Z,10.53
2018-09-30T11:07:58.832Z,13.05
2018-09-30T11:10:27.313Z,11.15
2018-09-30T11:12:55.775Z,12.00
2018-09-30T11:15:24.295Z,7.60
2018-09-30T11:17:52.863Z,8.78
2018-09-30T11:20:21.191Z,8.58
2018-09-30T11:22:49.964Z,6.35
2018-09-30T11:25:25.291Z,11.12
2018-09-30T11:27:53.809Z,9.10
2018-09-30T11:30:22.264Z,9.20
2018-09-30T11:32:50.549Z,5.78
2018-09-30T11:35:18.934Z,10.70
2018-09-30T11:37:47.758Z,8.03
2018-09-30T11:40:16.220Z,8.48
2018-09-30T11:42:44.648Z,10.55
2018-09-30T11:45:12.914Z,10.85
2018-09-30T11:47:41.901Z,10.23
2018-09-30T11:50:10.190Z,7.17
2018-09-30T11:52:38.613Z,8.48
2018-09-30T11:55:07.952Z,7.30
2018-09-30T11:57:36.486Z,9.80
2018-09-30T12:00:04.967Z,9.10
2018-09-30T12:02:33.421Z,9.68
2018-09-30T12:05:01.755Z,9.53
2018-09-30T12:07:31.025Z,12.53
2018-09-30T12:10:00.747Z,7.37
2018-09-30T12:12:29.102Z,9.73
2018-09-30T12:14:57.849Z,9.20
2018-09-30T12:17:26.188Z,11.03
2018-09-30T12:19:54.530Z,7.58
2018-09-30T12:22:22.916Z,7.75
2018-09-30T12:24:51.394Z,6.30
2018-09-30T12:27:19.629Z,11.40
2018-09-30T12:29:48.064Z,7.03
2018-09-30T12:32:16.355Z,8.30
2018-09-30T12:34:44.797Z,6.55
2018-09-30T12:37:13.101Z,7.87
2018-09-30T12:39:41.380Z,7.00
2018-09-30T12:42:10.047Z,10.93
2018-09-30T12:44:38.361Z,6.58
2018-09-30T12:47:06.715Z,7.65
2018-09-30T12:49:35.093Z,5.78
2018-09-30T12:52:03.342Z,8.55
2018-09-30T12:54:31.661Z,7.45
2018-09-30T12:57:00.013Z,16.15
2018-09-30T12:59:28.404Z,6.70
2018-09-30T13:01:56.711Z,4.70
2018-09-30T13:04:26.215Z,6.15
2018-09-30T13:06:54.592Z,8.30
2018-09-30T13:09:23.010Z,7.70
2018-09-30T13:11:51.348Z,4.97
2018-09-30T13:14:19.666Z,13.18
2018-09-30T13:16:47.924Z,7.42
2018-09-30T13:19:16.362Z,9.58
2018-09-30T13:21:44.797Z,9.15
2018-09-30T13:24:13.143Z,16.27
2018-09-30T13:26:41.484Z,11.63
2018-09-30T13:29:09.726Z,6.45
2018-09-30T13:31:38.076Z,10.50
2018-09-30T13:34:06.676Z,7.12
2018-09-30T13:36:34.995Z,12.25
2018-09-30T13:39:03.731Z,20.48
2018-09-30T13:41:32.040Z,14.83
2018-09-30T13:44:00.302Z,13.72
2018-09-30T13:46:28.567Z,13.98
2018-09-30T13:48:56.840Z,15.78
2018-09-30T13:51:25.133Z,18.70
2018-09-30T13:53:53.454Z,10.82
2018-09-30T13:56:21.788Z,10.58
2018-09-30T13:58:50.161Z,9.78
2018-09-30T14:01:18.623Z,10.72
2018-09-30T14:03:47.062Z,9.60
2018-09-30T14:06:15.387Z,10.58
2018-09-30T14:08:43.751Z,11.33
2018-09-30T14:11:12.086Z,9.93
2018-09-30T14:13:40.565Z,10.08
2018-09-30T14:16:09.155Z,13.40
2018-09-30T14:18:37.455Z,7.87
2018-09-30T14:21:05.803Z,9.95
2018-09-30T14:23:34.075Z,9.28
2018-09-30T14:26:02.343Z,8.05
2018-09-30T14:28:30.661Z,10.72
2018-09-30T14:30:58.941Z,9.60
2018-09-30T14:33:27.250Z,10.10
2018-09-30T14:35:56.323Z,10.20
2018-09-30T14:38:24.654Z,13.35
2018-09-30T14:40:54.092Z,13.43
2018-09-30T14:43:22.379Z,12.68
2018-09-30T14:45:50.731Z,10.13
2018-09-30T14:48:19.118Z,11.93
2018-09-30T14:50:47.392Z,11.48
2018-09-30T14:53:15.696Z,9.78
2018-09-30T14:55:44.017Z,9.73
2018-09-30T14:58:12.303Z,10.68
2018-09-30T15:00:40.644Z,14.73
2018-09-30T15:03:08.991Z,10.55
2018-09-30T15:05:37.336Z,10.15
2018-09-30T15:08:05.673Z,8.13
2018-09-30T15:10:34.034Z,11.40
2018-09-30T15:13:02.452Z,14.95
2018-09-30T15:15:30.950Z,11.18
2018-09-30T15:18:00.272Z,10.78
2018-09-30T15:20:28.592Z,7.53
2018-09-30T15:22:56.894Z,8.50
2018-09-30T15:25:25.282Z,9.73
2018-09-30T15:27:53.560Z,10.63
2018-09-30T15:30:21.912Z,7.80
2018-09-30T15:32:50.283Z,16.45
2018-09-30T15:35:18.579Z,7.65
2018-09-30T15:37:46.879Z,10.90
2018-09-30T15:40:15.199Z,8.05
2018-09-30T15:42:43.520Z,6.72
2018-09-30T15:45:12.416Z,7.42
2018-09-30T15:47:40.735Z,13.83
2018-09-30T15:50:16.507Z,6.50
2018-09-30T15:52:44.811Z,10.32
2018-09-30T15:55:13.114Z,12.95
2018-09-30T15:57:41.544Z,13.15
2018-09-30T16:00:09.894Z,9.00
2018-09-30T16:02:38.246Z,10.08
2018-09-30T16:05:06.629Z,9.05
2018-09-30T16:07:35.115Z,10.45
2018-09-30T16:10:03.394Z,9.05
2018-09-30T16:12:31.671Z,11.83
2018-09-30T16:14:59.945Z,14.13
2018-09-30T16:17:28.384Z,12.88
2018-09-30T16:19:56.677Z,10.03
2018-09-30T16:22:25.275Z,16.07
2018-09-30T16:24:53.552Z,17.60
2018-09-30T16:27:22.416Z,18.17
2018-09-30T16:29:50.748Z,14.45
2018-09-30T16:32:19.125Z,14.58
2018-09-30T16:34:47.451Z,15.48
2018-09-30T16:37:15.727Z,17.10
2018-09-30T16:39:44.326Z,14.15
2018-09-30T16:42:12.693Z,16.23
2018-09-30T16:44:41.364Z,14.43
2018-09-30T16:47:09.644Z,15.72
2018-09-30T16:49:37.992Z,16.60
2018-09-30T16:52:06.299Z,13.62
2018-09-30T16:54:34.684Z,15.05
2018-09-30T16:57:03.009Z,13.20
2018-09-30T16:59:31.267Z,11.80
2018-09-30T17:01:59.558Z,11.30
2018-09-30T17:04:27.914Z,12.55
2018-09-30T17:06:56.711Z,14.10
2018-09-30T17:09:25.324Z,11.65
2018-09-30T17:11:54.894Z,16.00
2018-09-30T17:14:23.961Z,20.92
2018-09-30T17:16:52.389Z,12.37
2018-09-30T17:19:20.768Z,16.35
2018-09-30T17:21:49.751Z,12.43
2018-09-30T17:24:20.508Z,12.73
2018-09-30T17:26:49.589Z,12.93
2018-09-30T17:29:17.875Z,15.90
2018-09-30T17:31:46.213Z,13.75
2018-09-30T17:34:14.475Z,13.22
2018-09-30T17:36:42.812Z,15.03
2018-09-30T17:39:11.149Z,18.00
2018-09-30T17:41:39.430Z,14.35
2018-09-30T17:44:07.796Z,13.38
2018-09-30T17:46:36.057Z,21.23
2018-09-30T17:49:05.011Z,13.83
2018-09-30T17:51:33.502Z,13.50
2018-09-30T17:54:01.891Z,17.82
2018-09-30T17:56:30.251Z,18.45
2018-09-30T17:58:58.718Z,15.88
2018-09-30T18:01:27.227Z,17.17
2018-09-30T18:03:55.682Z,15.68
2018-09-30T18:06:24.099Z,18.45
2018-09-30T18:08:52.397Z,15.98
2018-09-30T18:11:20.720Z,17.25
2018-09-30T18:13:49.032Z,20.27
2018-09-30T18:16:17.848Z,19.95
2018-09-30T18:18:46.268Z,15.60
2018-09-30T18:21:14.554Z,18.50
2018-09-30T18:23:42.909Z,21.02
2018-09-30T18:26:11.247Z,18.17
2018-09-30T18:28:39.567Z,22.70
2018-09-30T18:31:08.032Z,20.10
2018-09-30T18:33:36.381Z,17.48
2018-09-30T18:36:04.797Z,14.33
2018-09-30T18:38:33.418Z,20.43
2018-09-30T18:41:02.107Z,17.95
2018-09-30T18:43:30.635Z,17.10
2018-09-30T18:45:59.177Z,20.15
2018-09-30T18:48:27.467Z,20.45
2018-09-30T18:50:58.650Z,16.90
2018-09-30T18:53:26.991Z,21.37
2018-09-30T18:55:55.395Z,20.30
2018-09-30T18:58:23.755Z,18.92
2018-09-30T19:00:52.727Z,17.25
2018-09-30T19:03:21.940Z,16.77
2018-09-30T19:05:50.226Z,19.77
2018-09-30T19:08:18.539Z,17.57
2018-09-30T19:10:46.899Z,19.60
2018-09-30T19:13:15.372Z,17.45
2018-09-30T19:15:43.764Z,18.80
2018-09-30T19:18:12.107Z,19.10
2018-09-30T19:20:41.986Z,21.70
2018-09-30T19:23:10.388Z,15.05
2018-09-30T19:25:39.509Z,19.45
2018-09-30T19:28:07.913Z,18.87
2018-09-30T19:30:36.343Z,17.73
2018-09-30T19:33:04.751Z,24.20
2018-09-30T19:35:33.173Z,21.90
2018-09-30T19:38:03.279Z,18.25
2018-09-30T19:40:31.604Z,17.57
2018-09-30T19:43:00.285Z,18.80
2018-09-30T19:45:28.636Z,17.57
2018-09-30T19:47:56.996Z,14.03
2018-09-30T19:50:25.271Z,18.17
2018-09-30T19:52:54.064Z,18.37
2018-09-30T19:55:22.575Z,21.23
2018-09-30T19:57:50.855Z,22.05
2018-09-30T20:00:19.772Z,19.55
2018-09-30T20:02:48.371Z,27.70
2018-09-30T20:05:17.207Z,18.62
2018-09-30T20:07:45.581Z,21.85
2018-09-30T20:10:14.228Z,17.75
2018-09-30T20:12:42.641Z,15.90
2018-09-30T20:15:10.925Z,14.15
2018-09-30T20:17:39.260Z,23.10
2018-09-30T20:20:07.638Z,19.37
2018-09-30T20:22:35.939Z,17.60
2018-09-30T20:25:04.362Z,23.20
2018-09-30T20:27:32.780Z,13.43
2018-09-30T20:30:01.075Z,20.55
2018-09-30T20:32:29.309Z,23.60
2018-09-30T20:34:57.712Z,18.32
2018-09-30T20:37:26.191Z,19.62
2018-09-30T20:39:54.482Z,21.25
2018-09-30T20:42:22.843Z,21.85
2018-09-30T20:44:51.228Z,15.20
2018-09-30T20:47:19.620Z,21.17
2018-09-30T20:49:47.904Z,15.75
2018-09-30T20:52:23.060Z,20.43
2018-09-30T20:54:51.323Z,15.23
2018-09-30T20:57:19.673Z,15.85
2018-09-30T20:59:48.135Z,15.00
2018-09-30T21:02:16.473Z,12.28
2018-09-30T21:04:44.836Z,18.05
2018-09-30T21:07:13.139Z,14.63
2018-09-30T21:09:41.447Z,17.32
2018-09-30T21:12:09.791Z,15.80
2018-09-30T21:14:38.073Z,15.03
2018-09-30T21:17:06.847Z,18.12
2018-09-30T21:19:35.240Z,14.55
2018-09-30T21:22:03.950Z,21.70
2018-09-30T21:24:32.316Z,18.75
2018-09-30T21:27:00.723Z,14.70
2018-09-30T21:29:29.076Z,15.25
2018-09-30T21:31:57.391Z,14.05
2018-09-30T21:34:25.774Z,20.30
2018-09-30T21:36:54.065Z,21.85
2018-09-30T21:39:22.366Z,14.68
2018-09-30T21:41:50.655Z,16.93
2018-09-30T21:44:18.987Z,13.20
2018-09-30T21:46:47.334Z,15.45
2018-09-30T21:49:15.687Z,15.23
2018-09-30T21:51:43.979Z,14.93
2018-09-30T21:54:12.336Z,13.13
2018-09-30T21:56:40.717Z,16.37
2018-09-30T21:59:09.632Z,14.95
2018-09-30T22:01:38.094Z,16.05
2018-09-30T22:04:06.476Z,13.18
2018-09-30T22:06:34.843Z,12.60
2018-09-30T22:09:03.907Z,16.60
2018-09-30T22:11:32.347Z,16.05
2018-09-30T22:14:00.646Z,15.72
2018-09-30T22:16:28.922Z,12.95
2018-09-30T22:18:57.292Z,13.38
2018-09-30T22:21:25.680Z,18.45
2018-09-30T22:23:53.995Z,12.43
2018-09-30T22:26:22.307Z,12.93
2018-09-30T22:28:50.579Z,15.78
2018-09-30T22:31:18.916Z,16.27
2018-09-30T22:33:47.408Z,13.05
2018-09-30T22:36:15.809Z,14.90
2018-09-30T22:38:44.132Z,12.20
2018-09-30T22:41:12.479Z,15.53
2018-09-30T22:43:40.797Z,14.05
2018-09-30T22:46:09.135Z,17.30
2018-09-30T22:48:37.439Z,14.07
2018-09-30T22:51:05.746Z,14.63
2018-09-30T22:53:34.172Z,10.85
2018-09-30T22:56:02.666Z,9.75
2018-09-30T22:58:31.057Z,11.97
2018-09-30T23:00:59.337Z,11.30
2018-09-30T23:03:27.712Z,14.65
2018-09-30T23:05:56.007Z,10.00
2018-09-30T23:08:24.340Z,15.55
2018-09-30T23:10:52.654Z,15.70
2018-09-30T23:13:20.997Z,14.23
2018-09-30T23:15:49.335Z,10.13
2018-09-30T23:18:17.687Z,10.93
2018-09-30T23:20:46.151Z,11.43
2018-09-30T23:23:14.527Z,9.53
2018-09-30T23:25:42.798Z,15.65
2018-09-30T23:28:11.069Z,10.38
2018-09-30T23:30:39.339Z,17.45
2018-09-30T23:33:07.722Z,10.13
2018-09-30T23:35:36.131Z,11.28
2018-09-30T23:38:04.431Z,11.22
2018-09-30T23:40:32.846Z,11.12
2018-09-30T23:43:01.135Z,8.23
2018-09-30T23:45:29.427Z,14.03
2018-09-30T23:47:57.761Z,11.48
2018-09-30T23:50:26.087Z,12.25
2018-09-30T23:52:54.410Z,17.52
2018-09-30T23:55:23.027Z,14.05
2018-09-30T23:57:51.488Z,11.33
